sensor_id;sensor_type;location;lat;lon;timestamp;P1;durP1;ratioP1;P2;durP2;ratioP2
25531;SDS011;13429;48.816;9.118;2023-01-09T00:01:11;4.50;;;3.33;;
25531;SDS011;13429;48.816;9.118;2023-01-09T00:03:37;4.30;;;3.28;;
25531;SDS011;13429;48.816;9.118;2023-01-09T00:06:03;4.35;;;3.38;;
25531;SDS011;13429;48.816;9.118;2023-01-09T00:08:29;5.05;;;3.33;;
25531;SDS011;13429;48.816;9.118;2023-01-09T00:10:55;4.32;;;3.08;;
25531;SDS011;13429;48.816;9.118;2023-01-09T00:13:21;4.57;;;3.20;;
25531;SDS011;13429;48.816;9.118;2023-01-09T00:15:47;3.83;;;2.78;;
25531;SDS011;13429;48.816;9.118;2023-01-09T00:18:13;4.90;;;3.45;;
25531;SDS011;13429;48.816;9.118;2023-01-09T00:20:39;3.78;;;2.80;;
25531;SDS011;13429;48.816;9.118;2023-01-09T00:23:05;4.70;;;2.63;;
25531;SDS011;13429;48.816;9.118;2023-01-09T00:25:31;4.75;;;2.97;;
25531;SDS011;13429;48.816;9.118;2023-01-09T00:27:57;5.00;;;3.00;;
25531;SDS011;13429;48.816;9.118;2023-01-09T00:30:23;3.83;;;2.55;;
25531;SDS011;13429;48.816;9.118;2023-01-09T00:32:49;3.88;;;2.47;;
25531;SDS011;13429;48.816;9.118;2023-01-09T00:35:16;3.90;;;2.53;;
25531;SDS011;13429;48.816;9.118;2023-01-09T00:37:42;3.22;;;2.30;;
25531;SDS011;13429;48.816;9.118;2023-01-09T00:40:09;3.40;;;2.38;;
25531;SDS011;13429;48.816;9.118;2023-01-09T00:42:35;2.80;;;2.10;;
25531;SDS011;13429;48.816;9.118;2023-01-09T00:45:02;3.05;;;1.80;;
25531;SDS011;13429;48.816;9.118;2023-01-09T00:47:34;3.47;;;1.85;;
25531;SDS011;13429;48.816;9.118;2023-01-09T00:50:02;2.20;;;1.80;;
25531;SDS011;13429;48.816;9.118;2023-01-09T00:52:30;2.75;;;2.25;;
25531;SDS011;13429;48.816;9.118;2023-01-09T00:54:57;2.50;;;1.70;;
25531;SDS011;13429;48.816;9.118;2023-01-09T00:57:27;3.50;;;1.70;;
25531;SDS011;13429;48.816;9.118;2023-01-09T00:59:53;1.85;;;1.25;;
25531;SDS011;13429;48.816;9.118;2023-01-09T01:02:19;1.98;;;1.33;;
25531;SDS011;13429;48.816;9.118;2023-01-09T01:04:45;0.93;;;0.82;;
25531;SDS011;13429;48.816;9.118;2023-01-09T01:07:40;1.65;;;1.10;;
25531;SDS011;13429;48.816;9.118;2023-01-09T01:10:11;1.63;;;1.15;;
25531;SDS011;13429;48.816;9.118;2023-01-09T01:12:38;1.92;;;1.25;;
25531;SDS011;13429;48.816;9.118;2023-01-09T01:15:04;1.20;;;0.90;;
25531;SDS011;13429;48.816;9.118;2023-01-09T01:17:32;1.30;;;0.80;;
25531;SDS011;13429;48.816;9.118;2023-01-09T01:19:58;2.13;;;0.77;;
25531;SDS011;13429;48.816;9.118;2023-01-09T01:22:24;0.93;;;0.65;;
25531;SDS011;13429;48.816;9.118;2023-01-09T01:24:50;3.03;;;0.80;;
25531;SDS011;13429;48.816;9.118;2023-01-09T01:27:16;1.17;;;0.93;;
25531;SDS011;13429;48.816;9.118;2023-01-09T01:29:42;1.45;;;0.93;;
25531;SDS011;13429;48.816;9.118;2023-01-09T01:32:08;0.75;;;0.70;;
25531;SDS011;13429;48.816;9.118;2023-01-09T01:34:35;1.60;;;1.08;;
25531;SDS011;13429;48.816;9.118;2023-01-09T01:37:01;1.95;;;0.73;;
25531;SDS011;13429;48.816;9.118;2023-01-09T01:39:27;1.10;;;0.60;;
25531;SDS011;13429;48.816;9.118;2023-01-09T01:41:53;1.23;;;0.60;;
25531;SDS011;13429;48.816;9.118;2023-01-09T01:47:04;1.02;;;0.70;;
25531;SDS011;13429;48.816;9.118;2023-01-09T01:49:30;0.98;;;0.68;;
25531;SDS011;13429;48.816;9.118;2023-01-09T01:51:56;2.38;;;0.68;;
25531;SDS011;13429;48.816;9.118;2023-01-09T01:54:23;1.73;;;0.70;;
25531;SDS011;13429;48.816;9.118;2023-01-09T01:56:51;1.10;;;0.60;;
25531;SDS011;13429;48.816;9.118;2023-01-09T01:59:25;1.65;;;0.60;;
25531;SDS011;13429;48.816;9.118;2023-01-09T02:01:52;1.13;;;0.68;;
25531;SDS011;13429;48.816;9.118;2023-01-09T02:04:19;1.48;;;0.75;;
25531;SDS011;13429;48.816;9.118;2023-01-09T02:06:46;2.15;;;0.70;;
25531;SDS011;13429;48.816;9.118;2023-01-09T02:09:12;1.13;;;0.60;;
25531;SDS011;13429;48.816;9.118;2023-01-09T02:11:46;0.80;;;0.50;;
25531;SDS011;13429;48.816;9.118;2023-01-09T02:14:13;1.00;;;0.50;;
25531;SDS011;13429;48.816;9.118;2023-01-09T02:22:01;2.63;;;0.40;;
25531;SDS011;13429;48.816;9.118;2023-01-09T02:24:35;0.52;;;0.40;;
25531;SDS011;13429;48.816;9.118;2023-01-09T02:32:09;1.00;;;0.50;;
25531;SDS011;13429;48.816;9.118;2023-01-09T02:34:41;1.42;;;0.40;;
25531;SDS011;13429;48.816;9.118;2023-01-09T02:37:18;0.40;;;0.20;;
25531;SDS011;13429;48.816;9.118;2023-01-09T02:42:29;0.70;;;0.30;;
25531;SDS011;13429;48.816;9.118;2023-01-09T02:44:56;0.57;;;0.30;;
25531;SDS011;13429;48.816;9.118;2023-01-09T02:49:49;0.25;;;0.25;;
25531;SDS011;13429;48.816;9.118;2023-01-09T02:52:21;0.50;;;0.30;;
25531;SDS011;13429;48.816;9.118;2023-01-09T02:57:30;1.08;;;0.30;;
25531;SDS011;13429;48.816;9.118;2023-01-09T03:02:34;0.77;;;0.30;;
25531;SDS011;13429;48.816;9.118;2023-01-09T03:07:36;0.77;;;0.50;;
25531;SDS011;13429;48.816;9.118;2023-01-09T03:10:09;0.43;;;0.20;;
25531;SDS011;13429;48.816;9.118;2023-01-09T03:12:36;0.20;;;0.20;;
25531;SDS011;13429;48.816;9.118;2023-01-09T03:15:02;2.38;;;0.25;;
25531;SDS011;13429;48.816;9.118;2023-01-09T03:17:31;0.60;;;0.20;;
25531;SDS011;13429;48.816;9.118;2023-01-09T03:20:00;0.43;;;0.17;;
25531;SDS011;13429;48.816;9.118;2023-01-09T03:22:27;0.47;;;0.20;;
25531;SDS011;13429;48.816;9.118;2023-01-09T03:24:53;0.35;;;0.20;;
25531;SDS011;13429;48.816;9.118;2023-01-09T03:27:19;0.80;;;0.30;;
25531;SDS011;13429;48.816;9.118;2023-01-09T03:29:45;0.40;;;0.30;;
25531;SDS011;13429;48.816;9.118;2023-01-09T03:32:11;0.73;;;0.50;;
25531;SDS011;13429;48.816;9.118;2023-01-09T03:34:37;0.50;;;0.38;;
25531;SDS011;13429;48.816;9.118;2023-01-09T03:37:03;0.25;;;0.20;;
25531;SDS011;13429;48.816;9.118;2023-01-09T03:39:30;0.60;;;0.20;;
25531;SDS011;13429;48.816;9.118;2023-01-09T03:41:56;0.30;;;0.15;;
25531;SDS011;13429;48.816;9.118;2023-01-09T03:44:22;1.38;;;0.30;;
25531;SDS011;13429;48.816;9.118;2023-01-09T03:46:48;0.40;;;0.10;;
25531;SDS011;13429;48.816;9.118;2023-01-09T03:49:14;0.10;;;0.10;;
25531;SDS011;13429;48.816;9.118;2023-01-09T03:51:40;0.10;;;0.10;;
25531;SDS011;13429;48.816;9.118;2023-01-09T03:54:06;0.10;;;0.10;;
25531;SDS011;13429;48.816;9.118;2023-01-09T03:56:32;0.20;;;0.10;;
25531;SDS011;13429;48.816;9.118;2023-01-09T03:58:58;0.10;;;0.10;;
25531;SDS011;13429;48.816;9.118;2023-01-09T04:01:24;0.28;;;0.08;;
25531;SDS011;13429;48.816;9.118;2023-01-09T04:03:50;0.30;;;0.20;;
25531;SDS011;13429;48.816;9.118;2023-01-09T04:06:16;1.02;;;0.30;;
25531;SDS011;13429;48.816;9.118;2023-01-09T04:08:42;0.32;;;0.10;;
25531;SDS011;13429;48.816;9.118;2023-01-09T04:11:10;1.90;;;0.30;;
25531;SDS011;13429;48.816;9.118;2023-01-09T04:13:36;0.85;;;0.10;;
25531;SDS011;13429;48.816;9.118;2023-01-09T04:16:02;0.10;;;0.10;;
25531;SDS011;13429;48.816;9.118;2023-01-09T04:18:28;0.10;;;0.10;;
25531;SDS011;13429;48.816;9.118;2023-01-09T04:20:54;0.10;;;0.10;;
25531;SDS011;13429;48.816;9.118;2023-01-09T04:23:20;0.15;;;0.10;;
25531;SDS011;13429;48.816;9.118;2023-01-09T04:25:46;0.10;;;0.10;;
25531;SDS011;13429;48.816;9.118;2023-01-09T04:28:12;2.38;;;0.30;;
25531;SDS011;13429;48.816;9.118;2023-01-09T04:30:38;0.13;;;0.10;;
25531;SDS011;13429;48.816;9.118;2023-01-09T04:33:04;1.38;;;0.40;;
25531;SDS011;13429;48.816;9.118;2023-01-09T04:35:30;0.10;;;0.10;;
25531;SDS011;13429;48.816;9.118;2023-01-09T04:37:56;0.10;;;0.10;;
25531;SDS011;13429;48.816;9.118;2023-01-09T04:40:22;0.10;;;0.10;;
25531;SDS011;13429;48.816;9.118;2023-01-09T04:42:48;0.20;;;0.10;;
25531;SDS011;13429;48.816;9.118;2023-01-09T04:45:14;2.65;;;0.30;;
25531;SDS011;13429;48.816;9.118;2023-01-09T04:47:41;0.15;;;0.10;;
25531;SDS011;13429;48.816;9.118;2023-01-09T04:50:07;0.10;;;0.10;;
25531;SDS011;13429;48.816;9.118;2023-01-09T04:52:33;0.85;;;0.63;;
25531;SDS011;13429;48.816;9.118;2023-01-09T04:54:59;3.97;;;1.23;;
25531;SDS011;13429;48.816;9.118;2023-01-09T04:57:25;2.08;;;0.70;;
25531;SDS011;13429;48.816;9.118;2023-01-09T04:59:51;0.80;;;0.30;;
25531;SDS011;13429;48.816;9.118;2023-01-09T05:02:17;0.40;;;0.13;;
25531;SDS011;13429;48.816;9.118;2023-01-09T05:04:43;1.17;;;0.30;;
25531;SDS011;13429;48.816;9.118;2023-01-09T05:07:09;0.20;;;0.10;;
25531;SDS011;13429;48.816;9.118;2023-01-09T05:09:35;0.98;;;0.50;;
25531;SDS011;13429;48.816;9.118;2023-01-09T05:12:01;1.30;;;0.32;;
25531;SDS011;13429;48.816;9.118;2023-01-09T05:14:27;1.27;;;0.22;;
25531;SDS011;13429;48.816;9.118;2023-01-09T05:16:53;1.48;;;0.30;;
25531;SDS011;13429;48.816;9.118;2023-01-09T05:19:19;2.60;;;0.30;;
25531;SDS011;13429;48.816;9.118;2023-01-09T05:21:45;0.38;;;0.15;;
25531;SDS011;13429;48.816;9.118;2023-01-09T05:24:11;1.25;;;0.32;;
25531;SDS011;13429;48.816;9.118;2023-01-09T05:26:37;2.15;;;0.30;;
25531;SDS011;13429;48.816;9.118;2023-01-09T05:29:03;2.47;;;0.52;;
25531;SDS011;13429;48.816;9.118;2023-01-09T05:31:29;1.45;;;0.40;;
25531;SDS011;13429;48.816;9.118;2023-01-09T05:33:55;1.88;;;0.45;;
25531;SDS011;13429;48.816;9.118;2023-01-09T05:36:23;3.05;;;0.80;;
25531;SDS011;13429;48.816;9.118;2023-01-09T05:38:49;2.15;;;0.43;;
25531;SDS011;13429;48.816;9.118;2023-01-09T05:41:15;5.13;;;0.60;;
25531;SDS011;13429;48.816;9.118;2023-01-09T05:43:41;2.55;;;1.92;;
25531;SDS011;13429;48.816;9.118;2023-01-09T05:46:07;2.17;;;0.40;;
25531;SDS011;13429;48.816;9.118;2023-01-09T05:48:33;2.20;;;0.63;;
25531;SDS011;13429;48.816;9.118;2023-01-09T05:50:59;1.27;;;0.52;;
25531;SDS011;13429;48.816;9.118;2023-01-09T05:53:25;1.35;;;0.38;;
25531;SDS011;13429;48.816;9.118;2023-01-09T05:55:51;3.45;;;0.50;;
25531;SDS011;13429;48.816;9.118;2023-01-09T05:58:17;0.73;;;0.38;;
25531;SDS011;13429;48.816;9.118;2023-01-09T06:00:43;1.83;;;0.47;;
25531;SDS011;13429;48.816;9.118;2023-01-09T06:03:09;4.07;;;0.55;;
25531;SDS011;13429;48.816;9.118;2023-01-09T06:05:35;2.75;;;0.50;;
25531;SDS011;13429;48.816;9.118;2023-01-09T06:08:01;1.95;;;0.40;;
25531;SDS011;13429;48.816;9.118;2023-01-09T06:10:27;2.60;;;0.50;;
25531;SDS011;13429;48.816;9.118;2023-01-09T06:12:53;1.27;;;0.50;;
25531;SDS011;13429;48.816;9.118;2023-01-09T06:15:19;2.38;;;0.90;;
25531;SDS011;13429;48.816;9.118;2023-01-09T06:17:45;2.70;;;0.65;;
25531;SDS011;13429;48.816;9.118;2023-01-09T06:20:11;1.38;;;0.40;;
25531;SDS011;13429;48.816;9.118;2023-01-09T06:22:37;1.92;;;0.40;;
25531;SDS011;13429;48.816;9.118;2023-01-09T06:25:03;1.73;;;0.50;;
25531;SDS011;13429;48.816;9.118;2023-01-09T06:27:29;2.47;;;0.73;;
25531;SDS011;13429;48.816;9.118;2023-01-09T06:29:55;1.67;;;0.30;;
25531;SDS011;13429;48.816;9.118;2023-01-09T06:32:21;2.92;;;0.80;;
25531;SDS011;13429;48.816;9.118;2023-01-09T06:37:24;4.18;;;0.50;;
25531;SDS011;13429;48.816;9.118;2023-01-09T06:39:50;5.10;;;0.55;;
25531;SDS011;13429;48.816;9.118;2023-01-09T06:42:18;3.92;;;0.60;;
25531;SDS011;13429;48.816;9.118;2023-01-09T06:44:44;2.63;;;0.40;;
25531;SDS011;13429;48.816;9.118;2023-01-09T06:47:15;3.25;;;0.47;;
25531;SDS011;13429;48.816;9.118;2023-01-09T06:52:25;2.78;;;0.73;;
25531;SDS011;13429;48.816;9.118;2023-01-09T06:54:51;0.90;;;0.40;;
25531;SDS011;13429;48.816;9.118;2023-01-09T06:57:17;2.80;;;0.43;;
25531;SDS011;13429;48.816;9.118;2023-01-09T06:59:43;3.60;;;0.75;;
25531;SDS011;13429;48.816;9.118;2023-01-09T07:02:13;8.88;;;1.00;;
25531;SDS011;13429;48.816;9.118;2023-01-09T07:04:41;3.63;;;1.58;;
25531;SDS011;13429;48.816;9.118;2023-01-09T07:07:07;4.00;;;0.65;;
25531;SDS011;13429;48.816;9.118;2023-01-09T07:09:33;2.55;;;0.52;;
25531;SDS011;13429;48.816;9.118;2023-01-09T07:11:59;2.80;;;0.60;;
25531;SDS011;13429;48.816;9.118;2023-01-09T07:14:25;2.85;;;0.93;;
25531;SDS011;13429;48.816;9.118;2023-01-09T07:16:51;12.68;;;4.30;;
25531;SDS011;13429;48.816;9.118;2023-01-09T07:19:22;7.25;;;1.73;;
25531;SDS011;13429;48.816;9.118;2023-01-09T07:21:48;4.95;;;0.93;;
25531;SDS011;13429;48.816;9.118;2023-01-09T07:24:14;5.18;;;0.88;;
25531;SDS011;13429;48.816;9.118;2023-01-09T07:26:40;7.05;;;0.50;;
25531;SDS011;13429;48.816;9.118;2023-01-09T07:29:06;4.45;;;0.88;;
25531;SDS011;13429;48.816;9.118;2023-01-09T07:31:32;4.88;;;0.70;;
25531;SDS011;13429;48.816;9.118;2023-01-09T07:33:58;6.85;;;0.90;;
25531;SDS011;13429;48.816;9.118;2023-01-09T07:36:27;3.58;;;0.70;;
25531;SDS011;13429;48.816;9.118;2023-01-09T07:38:53;7.32;;;0.90;;
25531;SDS011;13429;48.816;9.118;2023-01-09T07:41:19;1.90;;;0.63;;
25531;SDS011;13429;48.816;9.118;2023-01-09T07:43:45;4.03;;;1.08;;
25531;SDS011;13429;48.816;9.118;2023-01-09T07:48:44;4.80;;;0.80;;
25531;SDS011;13429;48.816;9.118;2023-01-09T07:51:10;6.78;;;1.25;;
25531;SDS011;13429;48.816;9.118;2023-01-09T07:53:36;4.90;;;1.13;;
25531;SDS011;13429;48.816;9.118;2023-01-09T07:56:02;2.13;;;0.80;;
25531;SDS011;13429;48.816;9.118;2023-01-09T07:58:28;5.22;;;1.02;;
25531;SDS011;13429;48.816;9.118;2023-01-09T08:00:54;4.97;;;0.68;;
25531;SDS011;13429;48.816;9.118;2023-01-09T08:03:20;5.65;;;1.50;;
25531;SDS011;13429;48.816;9.118;2023-01-09T08:05:46;4.93;;;0.90;;
25531;SDS011;13429;48.816;9.118;2023-01-09T08:08:12;4.63;;;1.05;;
25531;SDS011;13429;48.816;9.118;2023-01-09T08:10:39;6.75;;;0.85;;
25531;SDS011;13429;48.816;9.118;2023-01-09T08:13:04;4.03;;;1.27;;
25531;SDS011;13429;48.816;9.118;2023-01-09T08:15:30;4.93;;;0.80;;
25531;SDS011;13429;48.816;9.118;2023-01-09T08:17:57;3.58;;;0.50;;
25531;SDS011;13429;48.816;9.118;2023-01-09T08:20:23;2.42;;;0.70;;
25531;SDS011;13429;48.816;9.118;2023-01-09T08:22:49;2.25;;;0.65;;
25531;SDS011;13429;48.816;9.118;2023-01-09T08:25:17;2.17;;;0.70;;
25531;SDS011;13429;48.816;9.118;2023-01-09T08:27:44;2.85;;;0.50;;
25531;SDS011;13429;48.816;9.118;2023-01-09T08:30:10;3.13;;;0.68;;
25531;SDS011;13429;48.816;9.118;2023-01-09T08:32:36;2.90;;;0.57;;
25531;SDS011;13429;48.816;9.118;2023-01-09T08:35:02;4.82;;;0.80;;
25531;SDS011;13429;48.816;9.118;2023-01-09T08:37:28;3.47;;;0.60;;
25531;SDS011;13429;48.816;9.118;2023-01-09T08:39:54;3.78;;;1.02;;
25531;SDS011;13429;48.816;9.118;2023-01-09T08:42:20;1.65;;;0.70;;
25531;SDS011;13429;48.816;9.118;2023-01-09T08:45:05;1.50;;;0.57;;
25531;SDS011;13429;48.816;9.118;2023-01-09T08:47:50;3.55;;;0.80;;
25531;SDS011;13429;48.816;9.118;2023-01-09T08:50:16;1.45;;;0.50;;
25531;SDS011;13429;48.816;9.118;2023-01-09T08:52:42;2.90;;;0.80;;
25531;SDS011;13429;48.816;9.118;2023-01-09T08:55:08;5.88;;;1.02;;
25531;SDS011;13429;48.816;9.118;2023-01-09T08:57:34;6.63;;;0.75;;
25531;SDS011;13429;48.816;9.118;2023-01-09T09:00:00;1.45;;;0.60;;
25531;SDS011;13429;48.816;9.118;2023-01-09T09:02:26;3.10;;;0.55;;
25531;SDS011;13429;48.816;9.118;2023-01-09T09:04:52;2.47;;;0.80;;
25531;SDS011;13429;48.816;9.118;2023-01-09T09:07:20;5.47;;;1.27;;
25531;SDS011;13429;48.816;9.118;2023-01-09T09:09:51;4.22;;;0.65;;
25531;SDS011;13429;48.816;9.118;2023-01-09T09:12:17;6.18;;;1.05;;
25531;SDS011;13429;48.816;9.118;2023-01-09T09:14:43;1.27;;;0.50;;
25531;SDS011;13429;48.816;9.118;2023-01-09T09:17:28;3.85;;;0.85;;
25531;SDS011;13429;48.816;9.118;2023-01-09T09:19:54;2.92;;;1.10;;
25531;SDS011;13429;48.816;9.118;2023-01-09T09:22:20;4.13;;;0.63;;
25531;SDS011;13429;48.816;9.118;2023-01-09T09:24:46;4.72;;;0.80;;
25531;SDS011;13429;48.816;9.118;2023-01-09T09:27:15;2.17;;;0.90;;
25531;SDS011;13429;48.816;9.118;2023-01-09T09:29:42;5.82;;;0.68;;
25531;SDS011;13429;48.816;9.118;2023-01-09T09:32:12;3.97;;;0.70;;
25531;SDS011;13429;48.816;9.118;2023-01-09T09:34:38;6.85;;;1.08;;
25531;SDS011;13429;48.816;9.118;2023-01-09T09:37:04;4.40;;;0.80;;
25531;SDS011;13429;48.816;9.118;2023-01-09T09:39:30;1.60;;;0.60;;
25531;SDS011;13429;48.816;9.118;2023-01-09T09:48:21;6.43;;;0.82;;
25531;SDS011;13429;48.816;9.118;2023-01-09T09:51:07;2.15;;;0.75;;
25531;SDS011;13429;48.816;9.118;2023-01-09T09:53:50;3.03;;;0.60;;
25531;SDS011;13429;48.816;9.118;2023-01-09T09:56:20;5.00;;;0.80;;
25531;SDS011;13429;48.816;9.118;2023-01-09T09:58:47;5.10;;;0.98;;
25531;SDS011;13429;48.816;9.118;2023-01-09T10:01:15;2.47;;;0.52;;
25531;SDS011;13429;48.816;9.118;2023-01-09T10:03:45;1.65;;;0.68;;
25531;SDS011;13429;48.816;9.118;2023-01-09T10:08:45;4.90;;;0.88;;
25531;SDS011;13429;48.816;9.118;2023-01-09T10:11:19;4.07;;;0.73;;
25531;SDS011;13429;48.816;9.118;2023-01-09T10:13:46;2.42;;;0.90;;
25531;SDS011;13429;48.816;9.118;2023-01-09T10:24:22;4.80;;;0.70;;
25531;SDS011;13429;48.816;9.118;2023-01-09T10:26:52;6.35;;;0.77;;
25531;SDS011;13429;48.816;9.118;2023-01-09T10:29:31;3.35;;;0.93;;
25531;SDS011;13429;48.816;9.118;2023-01-09T10:32:03;5.28;;;1.13;;
25531;SDS011;13429;48.816;9.118;2023-01-09T10:39:26;4.32;;;0.80;;
25531;SDS011;13429;48.816;9.118;2023-01-09T10:41:56;2.17;;;0.65;;
25531;SDS011;13429;48.816;9.118;2023-01-09T10:44:24;5.63;;;0.80;;
25531;SDS011;13429;48.816;9.118;2023-01-09T10:46:54;3.47;;;0.82;;
25531;SDS011;13429;48.816;9.118;2023-01-09T10:49:21;3.50;;;0.90;;
25531;SDS011;13429;48.816;9.118;2023-01-09T10:54:14;4.03;;;1.02;;
25531;SDS011;13429;48.816;9.118;2023-01-09T10:56:43;3.88;;;0.80;;
25531;SDS011;13429;48.816;9.118;2023-01-09T10:59:10;2.70;;;0.80;;
25531;SDS011;13429;48.816;9.118;2023-01-09T11:01:37;5.05;;;0.95;;
25531;SDS011;13429;48.816;9.118;2023-01-09T11:07:00;5.45;;;0.85;;
25531;SDS011;13429;48.816;9.118;2023-01-09T11:09:27;8.38;;;1.42;;
25531;SDS011;13429;48.816;9.118;2023-01-09T11:11:53;3.53;;;1.00;;
25531;SDS011;13429;48.816;9.118;2023-01-09T11:14:23;4.72;;;1.33;;
25531;SDS011;13429;48.816;9.118;2023-01-09T11:16:56;4.55;;;1.05;;
25531;SDS011;13429;48.816;9.118;2023-01-09T11:19:24;2.60;;;0.90;;
25531;SDS011;13429;48.816;9.118;2023-01-09T11:21:52;4.18;;;0.90;;
25531;SDS011;13429;48.816;9.118;2023-01-09T11:24:30;5.97;;;0.82;;
25531;SDS011;13429;48.816;9.118;2023-01-09T11:29:37;3.13;;;0.98;;
25531;SDS011;13429;48.816;9.118;2023-01-09T11:32:04;5.13;;;0.98;;
25531;SDS011;13429;48.816;9.118;2023-01-09T11:34:30;5.43;;;0.93;;
25531;SDS011;13429;48.816;9.118;2023-01-09T11:37:07;8.77;;;1.23;;
25531;SDS011;13429;48.816;9.118;2023-01-09T11:39:34;5.07;;;1.02;;
25531;SDS011;13429;48.816;9.118;2023-01-09T11:42:05;4.38;;;1.85;;
25531;SDS011;13429;48.816;9.118;2023-01-09T11:44:31;5.95;;;0.88;;
25531;SDS011;13429;48.816;9.118;2023-01-09T11:46:58;7.82;;;0.82;;
25531;SDS011;13429;48.816;9.118;2023-01-09T11:49:25;3.95;;;1.60;;
25531;SDS011;13429;48.816;9.118;2023-01-09T11:54:30;4.13;;;0.80;;
25531;SDS011;13429;48.816;9.118;2023-01-09T11:56:57;3.90;;;0.73;;
25531;SDS011;13429;48.816;9.118;2023-01-09T11:59:29;4.75;;;0.90;;
25531;SDS011;13429;48.816;9.118;2023-01-09T12:04:25;8.15;;;1.00;;
25531;SDS011;13429;48.816;9.118;2023-01-09T12:07:17;3.05;;;1.00;;
25531;SDS011;13429;48.816;9.118;2023-01-09T12:09:53;4.88;;;0.88;;
25531;SDS011;13429;48.816;9.118;2023-01-09T12:15:04;3.35;;;0.95;;
25531;SDS011;13429;48.816;9.118;2023-01-09T12:18:34;4.00;;;1.10;;
25531;SDS011;13429;48.816;9.118;2023-01-09T12:20:41;1.50;;;0.80;;
25531;SDS011;13429;48.816;9.118;2023-01-09T12:25:52;7.82;;;1.27;;
25531;SDS011;13429;48.816;9.118;2023-01-09T12:30:57;3.40;;;0.98;;
25531;SDS011;13429;48.816;9.118;2023-01-09T12:33:33;4.30;;;1.25;;
25531;SDS011;13429;48.816;9.118;2023-01-09T12:36:10;6.50;;;0.93;;
25531;SDS011;13429;48.816;9.118;2023-01-09T12:38:47;5.32;;;1.10;;
25531;SDS011;13429;48.816;9.118;2023-01-09T12:46:47;4.10;;;1.23;;
25531;SDS011;13429;48.816;9.118;2023-01-09T12:49:28;4.45;;;0.90;;
25531;SDS011;13429;48.816;9.118;2023-01-09T12:56:55;3.25;;;0.60;;
25531;SDS011;13429;48.816;9.118;2023-01-09T12:59:30;4.35;;;1.05;;
25531;SDS011;13429;48.816;9.118;2023-01-09T13:04:47;1.88;;;0.47;;
25531;SDS011;13429;48.816;9.118;2023-01-09T13:07:17;1.27;;;0.63;;
25531;SDS011;13429;48.816;9.118;2023-01-09T13:09:46;1.15;;;0.80;;
25531;SDS011;13429;48.816;9.118;2023-01-09T13:12:15;1.92;;;0.80;;
25531;SDS011;13429;48.816;9.118;2023-01-09T13:17:13;2.50;;;0.70;;
25531;SDS011;13429;48.816;9.118;2023-01-09T13:19:40;6.28;;;4.93;;
25531;SDS011;13429;48.816;9.118;2023-01-09T13:22:06;7.30;;;6.65;;
25531;SDS011;13429;48.816;9.118;2023-01-09T13:24:36;5.70;;;3.67;;
25531;SDS011;13429;48.816;9.118;2023-01-09T13:27:12;2.30;;;0.47;;
25531;SDS011;13429;48.816;9.118;2023-01-09T13:29:44;2.75;;;0.43;;
25531;SDS011;13429;48.816;9.118;2023-01-09T13:34:56;3.30;;;0.98;;
25531;SDS011;13429;48.816;9.118;2023-01-09T13:39:55;1.35;;;0.63;;
25531;SDS011;13429;48.816;9.118;2023-01-09T13:42:22;2.83;;;0.80;;
25531;SDS011;13429;48.816;9.118;2023-01-09T13:45:24;0.93;;;0.37;;
25531;SDS011;13429;48.816;9.118;2023-01-09T13:50:36;1.50;;;0.50;;
25531;SDS011;13429;48.816;9.118;2023-01-09T14:00:51;3.42;;;1.10;;
25531;SDS011;13429;48.816;9.118;2023-01-09T14:03:25;1.42;;;0.50;;
25531;SDS011;13429;48.816;9.118;2023-01-09T14:08:18;1.17;;;0.30;;
25531;SDS011;13429;48.816;9.118;2023-01-09T14:10:46;1.42;;;0.43;;
25531;SDS011;13429;48.816;9.118;2023-01-09T14:13:14;2.47;;;0.50;;
25531;SDS011;13429;48.816;9.118;2023-01-09T14:15:42;3.85;;;1.75;;
25531;SDS011;13429;48.816;9.118;2023-01-09T14:18:17;5.40;;;4.43;;
25531;SDS011;13429;48.816;9.118;2023-01-09T14:20:45;1.77;;;1.52;;
25531;SDS011;13429;48.816;9.118;2023-01-09T14:25:41;3.70;;;0.68;;
25531;SDS011;13429;48.816;9.118;2023-01-09T14:38:22;0.25;;;0.15;;
25531;SDS011;13429;48.816;9.118;2023-01-09T14:40:52;0.50;;;0.30;;
25531;SDS011;13429;48.816;9.118;2023-01-09T14:43:25;2.22;;;0.77;;
25531;SDS011;13429;48.816;9.118;2023-01-09T14:45:54;2.92;;;1.00;;
25531;SDS011;13429;48.816;9.118;2023-01-09T14:48:21;2.85;;;0.85;;
25531;SDS011;13429;48.816;9.118;2023-01-09T14:50:49;1.65;;;0.57;;
25531;SDS011;13429;48.816;9.118;2023-01-09T14:53:28;1.20;;;0.63;;
25531;SDS011;13429;48.816;9.118;2023-01-09T15:03:20;0.85;;;0.50;;
25531;SDS011;13429;48.816;9.118;2023-01-09T15:05:47;3.53;;;0.85;;
25531;SDS011;13429;48.816;9.118;2023-01-09T15:08:15;0.95;;;0.40;;
25531;SDS011;13429;48.816;9.118;2023-01-09T15:10:43;2.05;;;0.40;;
25531;SDS011;13429;48.816;9.118;2023-01-09T15:13:13;3.65;;;0.65;;
25531;SDS011;13429;48.816;9.118;2023-01-09T15:15:44;1.27;;;0.40;;
25531;SDS011;13429;48.816;9.118;2023-01-09T15:18:11;0.45;;;0.30;;
25531;SDS011;13429;48.816;9.118;2023-01-09T15:20:42;0.77;;;0.40;;
25531;SDS011;13429;48.816;9.118;2023-01-09T15:23:18;0.70;;;0.40;;
25531;SDS011;13429;48.816;9.118;2023-01-09T15:25:46;2.70;;;0.68;;
25531;SDS011;13429;48.816;9.118;2023-01-09T15:28:31;5.03;;;0.80;;
25531;SDS011;13429;48.816;9.118;2023-01-09T15:30:59;2.45;;;0.70;;
25531;SDS011;13429;48.816;9.118;2023-01-09T15:33:25;3.88;;;0.85;;
25531;SDS011;13429;48.816;9.118;2023-01-09T15:35:51;10.40;;;1.55;;
25531;SDS011;13429;48.816;9.118;2023-01-09T15:38:24;5.43;;;2.78;;
25531;SDS011;13429;48.816;9.118;2023-01-09T15:40:53;4.03;;;1.85;;
25531;SDS011;13429;48.816;9.118;2023-01-09T15:43:20;2.30;;;0.98;;
25531;SDS011;13429;48.816;9.118;2023-01-09T15:45:46;1.40;;;0.65;;
25531;SDS011;13429;48.816;9.118;2023-01-09T15:51:01;4.40;;;0.80;;
25531;SDS011;13429;48.816;9.118;2023-01-09T15:53:27;3.50;;;0.88;;
25531;SDS011;13429;48.816;9.118;2023-01-09T15:56:27;1.45;;;0.60;;
25531;SDS011;13429;48.816;9.118;2023-01-09T15:58:48;0.95;;;0.50;;
25531;SDS011;13429;48.816;9.118;2023-01-09T16:03:43;4.00;;;0.60;;
25531;SDS011;13429;48.816;9.118;2023-01-09T16:06:12;3.78;;;0.70;;
25531;SDS011;13429;48.816;9.118;2023-01-09T16:08:40;0.82;;;0.50;;
25531;SDS011;13429;48.816;9.118;2023-01-09T16:11:07;1.30;;;0.60;;
25531;SDS011;13429;48.816;9.118;2023-01-09T16:13:37;4.45;;;1.35;;
25531;SDS011;13429;48.816;9.118;2023-01-09T16:16:04;2.92;;;1.05;;
25531;SDS011;13429;48.816;9.118;2023-01-09T16:18:32;5.20;;;1.50;;
25531;SDS011;13429;48.816;9.118;2023-01-09T16:21:18;2.67;;;1.00;;
25531;SDS011;13429;48.816;9.118;2023-01-09T16:23:56;6.32;;;1.05;;
25531;SDS011;13429;48.816;9.118;2023-01-09T16:26:23;1.83;;;0.70;;
25531;SDS011;13429;48.816;9.118;2023-01-09T16:28:50;1.58;;;0.85;;
25531;SDS011;13429;48.816;9.118;2023-01-09T16:33:46;2.42;;;1.23;;
25531;SDS011;13429;48.816;9.118;2023-01-09T16:36:16;3.13;;;1.90;;
25531;SDS011;13429;48.816;9.118;2023-01-09T16:38:42;3.25;;;1.52;;
25531;SDS011;13429;48.816;9.118;2023-01-09T16:41:12;4.15;;;1.30;;
25531;SDS011;13429;48.816;9.118;2023-01-09T16:43:58;3.08;;;1.10;;
25531;SDS011;13429;48.816;9.118;2023-01-09T16:46:24;2.72;;;1.13;;
25531;SDS011;13429;48.816;9.118;2023-01-09T16:48:52;1.40;;;0.75;;
25531;SDS011;13429;48.816;9.118;2023-01-09T16:51:19;2.45;;;1.20;;
25531;SDS011;13429;48.816;9.118;2023-01-09T16:53:45;2.53;;;0.75;;
25531;SDS011;13429;48.816;9.118;2023-01-09T16:56:13;6.07;;;1.27;;
25531;SDS011;13429;48.816;9.118;2023-01-09T16:58:39;5.47;;;2.45;;
25531;SDS011;13429;48.816;9.118;2023-01-09T17:01:05;3.60;;;1.95;;
25531;SDS011;13429;48.816;9.118;2023-01-09T17:03:31;2.88;;;1.20;;
25531;SDS011;13429;48.816;9.118;2023-01-09T17:05:58;6.60;;;2.20;;
25531;SDS011;13429;48.816;9.118;2023-01-09T17:08:27;5.20;;;2.03;;
25531;SDS011;13429;48.816;9.118;2023-01-09T17:10:54;3.25;;;2.08;;
25531;SDS011;13429;48.816;9.118;2023-01-09T17:13:20;1.60;;;1.00;;